Time;durP1;ratioP1;P1;durP2;ratioP2;P2;SDS_P1;SDS_P2;PMS_P1;PMS_P2;Temp;Humidity;BMP_temperature;BMP_pressure;BME280_temperature;BME280_humidity;BME280_pressure;Samples;Min_cycle;Max_cycle;Signal;HPM_P1;HPM_P2
2022/02/26 00:00:35;;;;;;;2.38;1.20;;;-3.60;99.90;;;;;;4937434;29;20111;-70
2022/02/26 00:03:00;;;;;;;2.15;1.30;;;-3.60;99.90;;;;;;4937041;29;20031;-70
2022/02/26 00:05:26;;;;;;;3.33;1.52;;;-3.60;99.90;;;;;;4937407;29;20027;-70
2022/02/26 00:07:52;;;;;;;5.00;1.40;;;-3.60;99.90;;;;;;4937058;29;20023;-70
2022/02/26 00:10:17;;;;;;;1.60;1.15;;;-3.50;99.90;;;;;;4937127;29;20032;-70
2022/02/26 00:12:43;;;;;;;1.77;1.33;;;-3.50;99.90;;;;;;4937330;29;20472;-70
2022/02/26 00:15:09;;;;;;;5.50;1.23;;;-3.50;99.90;;;;;;4937221;29;20364;-70
2022/02/26 00:17:35;;;;;;;2.83;1.33;;;-3.50;99.90;;;;;;4936934;29;20595;-70
2022/02/26 00:20:03;;;;;;;2.50;1.20;;;-3.50;99.90;;;;;;4936942;29;20031;-70
2022/02/26 00:22:29;;;;;;;1.63;1.10;;;-3.60;99.90;;;;;;4936849;29;20040;-70
2022/02/26 00:24:54;;;;;;;2.13;1.10;;;-3.70;99.90;;;;;;4936864;29;20470;-70
2022/02/26 00:27:20;;;;;;;2.10;1.20;;;-3.70;99.90;;;;;;4936828;29;20038;-70
2022/02/26 00:29:46;;;;;;;3.00;1.42;;;-3.70;99.90;;;;;;4936631;29;20471;-70
2022/02/26 00:32:12;;;;;;;3.13;1.30;;;-3.70;99.90;;;;;;4936435;29;20128;-70
2022/02/26 00:34:37;;;;;;;1.73;1.20;;;-3.80;99.90;;;;;;4936927;29;20027;-70
2022/02/26 00:37:04;;;;;;;3.03;1.20;;;-3.70;99.90;;;;;;4936217;29;20483;-71
2022/02/26 00:39:30;;;;;;;1.90;1.30;;;-3.70;99.90;;;;;;4936353;29;20444;-70
2022/02/26 00:41:56;;;;;;;3.08;2.20;;;-3.70;99.90;;;;;;4936610;29;20070;-70
2022/02/26 00:44:22;;;;;;;2.60;1.30;;;-3.70;99.90;;;;;;4936293;29;20527;-70
2022/02/26 00:46:48;;;;;;;2.40;1.25;;;-3.70;99.90;;;;;;4936630;29;20031;-70
2022/02/26 00:51:58;;;;;;;3.95;1.20;;;-3.70;99.90;;;;;;4936310;29;20041;-70
2022/02/26 00:54:24;;;;;;;2.03;1.10;;;-3.70;99.90;;;;;;4936134;29;20535;-70
2022/02/26 00:56:50;;;;;;;3.53;1.33;;;-3.80;99.90;;;;;;4935584;29;20030;-70
2022/02/26 00:59:15;;;;;;;4.13;1.40;;;-3.80;99.90;;;;;;4936303;29;20023;-70
2022/02/26 01:01:42;;;;;;;2.28;1.38;;;-3.80;99.90;;;;;;4936298;29;20035;-70
2022/02/26 01:04:08;;;;;;;1.85;1.10;;;-3.90;99.90;;;;;;4936078;29;20032;-70
2022/02/26 01:06:36;;;;;;;3.15;1.25;;;-3.90;99.90;;;;;;4936218;29;20494;-70
2022/02/26 01:09:04;;;;;;;1.40;1.30;;;-3.90;99.90;;;;;;4936316;29;20155;-70
2022/02/26 01:11:30;;;;;;;2.17;1.30;;;-4.00;99.90;;;;;;4935800;29;20027;-70
2022/02/26 01:13:57;;;;;;;4.82;1.38;;;-4.00;99.90;;;;;;4935954;29;20028;-70
2022/02/26 01:16:23;;;;;;;3.13;1.20;;;-4.10;99.90;;;;;;4935668;29;20027;-70
2022/02/26 01:18:49;;;;;;;1.30;1.20;;;-4.10;99.90;;;;;;4935884;29;20028;-69
2022/02/26 01:21:15;;;;;;;2.90;1.38;;;-4.00;99.90;;;;;;4935587;29;20039;-70
2022/02/26 01:23:40;;;;;;;3.55;1.58;;;-4.00;99.90;;;;;;4935828;29;20031;-70
2022/02/26 01:26:06;;;;;;;1.35;1.10;;;-4.00;99.90;;;;;;4936016;29;20032;-70
2022/02/26 01:28:32;;;;;;;4.63;1.40;;;-3.90;99.90;;;;;;4935608;29;20103;-70
2022/02/26 01:30:57;;;;;;;3.25;1.17;;;-3.90;99.90;;;;;;4935602;29;20067;-70
2022/02/26 01:33:23;;;;;;;4.90;1.70;;;-4.00;99.90;;;;;;4935625;29;20035;-70
2022/02/26 01:35:49;;;;;;;4.88;1.10;;;-4.00;99.90;;;;;;4935498;29;20490;-70
2022/02/26 01:38:15;;;;;;;1.30;1.20;;;-4.00;99.90;;;;;;4935135;29;20094;-70
2022/02/26 01:40:40;;;;;;;3.92;1.23;;;-4.00;99.90;;;;;;4935409;29;20045;-69
2022/02/26 01:43:06;;;;;;;2.08;1.08;;;-4.10;99.90;;;;;;4935394;29;20036;-70
2022/02/26 01:45:32;;;;;;;1.98;1.48;;;-4.10;99.90;;;;;;4935229;29;20035;-69
2022/02/26 01:47:58;;;;;;;1.33;1.23;;;-4.10;99.90;;;;;;4935585;29;20058;-69
2022/02/26 01:50:23;;;;;;;5.40;1.38;;;-4.20;99.90;;;;;;4935458;29;20086;-69
2022/02/26 01:52:49;;;;;;;3.47;1.50;;;-4.20;99.90;;;;;;4935199;29;20090;-69
2022/02/26 01:55:15;;;;;;;2.85;1.27;;;-4.20;99.90;;;;;;4935309;29;20027;-69
2022/02/26 01:57:42;;;;;;;4.18;1.20;;;-4.20;99.90;;;;;;4935121;29;20067;-69
2022/02/26 02:00:11;;;;;;;2.38;1.20;;;-4.20;99.90;;;;;;4935229;29;20027;-69
2022/02/26 02:02:37;;;;;;;1.33;1.20;;;-4.20;99.90;;;;;;4934957;29;20047;-69
2022/02/26 02:05:03;;;;;;;1.38;1.23;;;-4.20;99.90;;;;;;4935098;29;20032;-69
2022/02/26 02:07:29;;;;;;;2.55;1.13;;;-4.10;99.90;;;;;;4934184;29;20027;-69
2022/02/26 02:09:55;;;;;;;1.45;1.10;;;-4.20;99.90;;;;;;4935303;29;20383;-69
2022/02/26 02:12:22;;;;;;;2.42;1.33;;;-4.30;99.90;;;;;;4934721;29;20396;-69
2022/02/26 02:14:47;;;;;;;4.15;1.40;;;-4.40;99.90;;;;;;4934976;29;20039;-69
2022/02/26 02:17:13;;;;;;;1.02;1.00;;;-4.40;99.90;;;;;;4935062;29;20523;-69
2022/02/26 02:19:39;;;;;;;2.95;1.20;;;-4.40;99.90;;;;;;4934868;29;20391;-69
2022/02/26 02:22:07;;;;;;;1.73;1.38;;;-4.40;99.90;;;;;;4934954;29;20047;-69
2022/02/26 02:53:36;;;;;;;2.05;1.23;;;-4.90;99.90;;;;;;4933829;29;20094;-69
2022/02/26 02:56:02;;;;;;;2.30;1.20;;;-5.00;99.90;;;;;;4934674;29;20024;-69
2022/02/26 02:58:29;;;;;;;1.42;1.25;;;-5.00;99.90;;;;;;4934414;29;20746;-68
2022/02/26 03:00:56;;;;;;;1.20;1.10;;;-5.00;99.90;;;;;;4934758;29;20051;-68
2022/02/26 03:03:22;;;;;;;1.83;1.05;;;-5.00;99.90;;;;;;4934710;29;20036;-68
2022/02/26 03:39:36;;;;;;;1.40;1.30;;;-5.80;99.90;;;;;;5033529;23;20062;-67
2022/02/26 03:42:04;;;;;;;4.03;1.23;;;-5.80;99.90;;;;;;4956722;28;20106;-67
2022/02/26 03:44:31;;;;;;;1.40;1.10;;;-5.80;99.90;;;;;;4955403;29;20027;-67
2022/02/26 03:46:58;;;;;;;2.35;1.20;;;-5.80;99.90;;;;;;4956862;28;20482;-67
2022/02/26 03:49:24;;;;;;;1.33;1.23;;;-5.80;99.90;;;;;;4956585;28;20114;-68
2022/02/26 03:51:50;;;;;;;1.73;1.20;;;-5.80;99.90;;;;;;4956788;28;20118;-68
2022/02/26 03:54:16;;;;;;;3.28;1.20;;;-5.90;99.90;;;;;;4956474;28;20159;-68
2022/02/26 03:56:42;;;;;;;2.40;1.40;;;-5.90;99.90;;;;;;4956393;29;20027;-68
2022/02/26 03:59:08;;;;;;;1.30;1.20;;;-6.00;99.90;;;;;;4956123;29;20027;-68
2022/02/26 04:01:35;;;;;;;1.20;1.10;;;-6.00;99.90;;;;;;4956398;28;20110;-67
2022/02/26 04:04:01;;;;;;;3.83;1.40;;;-6.00;99.90;;;;;;4956091;28;20360;-67
2022/02/26 04:06:26;;;;;;;2.08;1.27;;;-6.00;99.90;;;;;;4956325;28;20114;-66
2022/02/26 04:08:52;;;;;;;4.20;1.67;;;-6.00;99.90;;;;;;4956033;29;20118;-67
2022/02/26 04:11:18;;;;;;;2.45;1.50;;;-6.00;99.90;;;;;;4956292;29;20082;-67
2022/02/26 04:13:43;;;;;;;1.30;1.20;;;-6.10;99.90;;;;;;4956050;28;20122;-67
2022/02/26 04:16:09;;;;;;;1.90;1.40;;;-6.10;99.90;;;;;;4956259;29;20053;-67
2022/02/26 04:18:35;;;;;;;1.25;1.17;;;-6.10;99.90;;;;;;4956233;28;20129;-67
2022/02/26 04:21:01;;;;;;;1.75;1.20;;;-6.10;99.90;;;;;;4955795;28;20086;-67
2022/02/26 04:23:27;;;;;;;2.25;1.30;;;-6.00;99.90;;;;;;4956031;28;20118;-67
2022/02/26 04:25:52;;;;;;;2.28;1.27;;;-6.00;99.90;;;;;;4956111;29;20062;-67
2022/02/26 04:28:18;;;;;;;3.60;1.30;;;-6.00;99.90;;;;;;4956100;29;20475;-67
2022/02/26 04:30:44;;;;;;;2.67;1.38;;;-6.10;99.90;;;;;;4955249;28;20023;-67
2022/02/26 04:33:10;;;;;;;2.83;1.27;;;-6.20;99.90;;;;;;4955644;29;20493;-67
2022/02/26 04:35:37;;;;;;;1.42;1.20;;;-6.20;99.90;;;;;;4955921;28;20031;-67
2022/02/26 04:38:03;;;;;;;1.40;1.30;;;-6.20;99.90;;;;;;4955347;28;20043;-67
2022/02/26 04:40:29;;;;;;;1.95;1.35;;;-6.20;99.90;;;;;;4955617;28;20050;-67
2022/02/26 04:42:55;;;;;;;4.28;1.42;;;-6.20;99.90;;;;;;4955498;29;20043;-67
2022/02/26 04:45:21;;;;;;;1.42;1.20;;;-6.20;99.90;;;;;;4955533;29;20047;-67
2022/02/26 04:47:46;;;;;;;1.45;1.20;;;-6.30;99.90;;;;;;4955861;28;20031;-67
2022/02/26 04:50:14;;;;;;;2.50;1.33;;;-6.40;99.90;;;;;;4955650;29;20375;-68
2022/02/26 04:52:41;;;;;;;1.40;1.30;;;-6.40;99.90;;;;;;4955465;28;20027;-68
2022/02/26 04:55:08;;;;;;;2.70;1.30;;;-6.50;99.90;;;;;;4955608;28;20037;-67
2022/02/26 04:57:34;;;;;;;1.52;1.40;;;-6.50;99.90;;;;;;4955745;28;20063;-68
2022/02/26 05:00:00;;;;;;;1.45;1.20;;;-6.60;99.90;;;;;;4955242;29;20035;-68
2022/02/26 05:02:26;;;;;;;1.55;1.30;;;-6.60;99.90;;;;;;4955647;28;20035;-68
2022/02/26 05:04:51;;;;;;;2.13;1.30;;;-6.60;99.90;;;;;;4955352;28;20523;-68
2022/02/26 05:07:19;;;;;;;5.03;1.42;;;-6.50;99.90;;;;;;4955312;29;20640;-68
2022/02/26 05:09:45;;;;;;;1.67;1.40;;;-6.40;99.90;;;;;;4955436;28;20058;-68
2022/02/26 05:12:11;;;;;;;1.77;1.20;;;-6.40;99.90;;;;;;4955060;28;20561;-68
2022/02/26 05:14:37;;;;;;;2.13;1.40;;;-6.40;99.90;;;;;;4954972;28;20032;-68
2022/02/26 05:17:03;;;;;;;2.25;1.20;;;-6.30;99.90;;;;;;4954849;29;20034;-68
2022/02/26 05:19:28;;;;;;;1.50;1.40;;;-6.30;99.90;;;;;;4955155;29;20484;-68
2022/02/26 05:21:54;;;;;;;2.58;1.33;;;-6.30;99.90;;;;;;4954660;29;20475;-68
2022/02/26 05:24:20;;;;;;;2.22;1.50;;;-6.40;99.90;;;;;;4955099;29;20110;-68
2022/02/26 05:26:45;;;;;;;1.50;1.40;;;-6.60;99.90;;;;;;4954978;28;20395;-67
2022/02/26 05:29:11;;;;;;;1.50;1.40;;;-6.70;99.90;;;;;;4954605;29;20462;-68
2022/02/26 05:31:37;;;;;;;2.30;1.50;;;-6.80;99.90;;;;;;4955094;28;20562;-66
2022/02/26 05:34:03;;;;;;;1.48;1.38;;;-6.90;99.90;;;;;;4953303;29;20030;-67
2022/02/26 05:36:29;;;;;;;3.65;1.40;;;-6.80;99.90;;;;;;4954781;28;20102;-67
2022/02/26 05:38:55;;;;;;;1.83;1.35;;;-6.80;99.90;;;;;;4954266;28;20081;-67
2022/02/26 05:41:21;;;;;;;1.90;1.40;;;-5.30;99.90;;;;;;4954397;29;20035;-67
2022/02/26 05:43:47;;;;;;;1.70;1.15;;;-3.40;99.90;;;;;;4952897;28;20115;-68
2022/02/26 05:46:13;;;;;;;2.45;1.50;;;-4.10;99.90;;;;;;4935123;29;20110;-66
2022/02/26 05:48:38;;;;;;;2.50;1.40;;;-4.80;99.90;;;;;;4928653;29;20043;-67
2022/02/26 05:51:04;;;;;;;1.77;1.35;;;-5.20;99.90;;;;;;4930676;29;20032;-67
2022/02/26 05:53:30;;;;;;;1.92;1.45;;;-5.50;99.90;;;;;;4935188;29;20431;-73
2022/02/26 05:55:56;;;;;;;3.13;1.30;;;-5.70;99.90;;;;;;4929483;29;20047;-71
2022/02/26 05:58:22;;;;;;;3.05;1.50;;;-6.00;99.90;;;;;;4924816;29;20030;-67
2022/02/26 06:00:49;;;;;;;1.33;1.25;;;-6.20;99.90;;;;;;4926091;29;20400;-67
2022/02/26 06:03:18;;;;;;;1.17;1.05;;;-6.30;99.90;;;;;;4923483;29;20491;-67
2022/02/26 06:05:44;;;;;;;1.10;1.10;;;-6.40;99.90;;;;;;4930998;29;20078;-67
2022/02/26 06:08:10;;;;;;;5.13;1.50;;;-6.50;99.90;;;;;;4927840;29;20059;-71
2022/02/26 06:10:36;;;;;;;3.33;1.50;;;-6.50;99.90;;;;;;4924737;29;20047;-72
2022/02/26 06:13:02;;;;;;;2.60;1.23;;;-6.60;99.90;;;;;;4924680;29;20056;-68
2022/02/26 06:15:28;;;;;;;1.15;1.13;;;-6.60;99.90;;;;;;4928094;29;20023;-68
2022/02/26 06:17:53;;;;;;;1.60;1.50;;;-6.60;99.90;;;;;;4935230;29;20031;-67
2022/02/26 06:20:19;;;;;;;3.03;1.40;;;-6.70;99.90;;;;;;4935170;29;20050;-69
2022/02/26 06:22:45;;;;;;;2.45;1.27;;;-6.70;99.90;;;;;;4933710;29;20503;-69
2022/02/26 06:25:11;;;;;;;1.48;1.38;;;-6.40;99.90;;;;;;4934897;29;20099;-69
2022/02/26 06:27:38;;;;;;;3.95;1.55;;;-6.40;99.90;;;;;;4935257;29;20030;-69
2022/02/26 06:30:06;;;;;;;5.70;1.45;;;-6.50;99.90;;;;;;4931468;29;20036;-68
2022/02/26 06:32:32;;;;;;;1.52;1.40;;;-6.60;99.90;;;;;;4916173;29;20028;-69
2022/02/26 06:34:58;;;;;;;1.58;1.48;;;-6.60;99.90;;;;;;4915662;29;20027;-69
2022/02/26 06:37:24;;;;;;;1.55;1.42;;;-6.70;99.90;;;;;;4915531;29;20029;-69
2022/02/26 06:39:50;;;;;;;3.15;1.52;;;-6.70;99.90;;;;;;4915768;29;20559;-68
2022/02/26 06:42:16;;;;;;;1.40;1.30;;;-6.70;99.90;;;;;;4915525;29;20044;-69
2022/02/26 06:44:42;;;;;;;3.60;1.33;;;-6.70;99.90;;;;;;4915684;29;20120;-68
2022/02/26 06:47:07;;;;;;;3.05;1.65;;;-6.80;99.90;;;;;;4915599;29;20036;-69
2022/02/26 06:49:33;;;;;;;1.55;1.45;;;-6.80;99.90;;;;;;4915878;29;20397;-69
2022/02/26 06:51:59;;;;;;;4.13;1.55;;;-6.80;99.90;;;;;;4915644;29;20036;-69
2022/02/26 06:54:25;;;;;;;1.70;1.38;;;-6.80;99.90;;;;;;4917084;29;20107;-68
2022/02/26 06:56:52;;;;;;;2.25;1.70;;;-6.70;99.90;;;;;;4919677;29;20463;-69
2022/02/26 06:59:18;;;;;;;1.45;1.35;;;-6.60;99.90;;;;;;4919151;29;20092;-66
2022/02/26 07:01:45;;;;;;;1.67;1.45;;;-6.30;99.90;;;;;;4920595;29;20463;-72
2022/02/26 07:04:12;;;;;;;1.55;1.30;;;-6.40;99.90;;;;;;4935173;29;20024;-73
2022/02/26 07:06:42;;;;;;;1.70;1.60;;;-6.50;99.90;;;;;;4938550;29;20419;-68
2022/02/26 07:09:10;;;;;;;75.43;23.65;;;-6.50;99.90;;;;;;4933708;29;20480;-67
2022/02/26 07:11:36;;;;;;;12.43;5.18;;;-6.50;99.90;;;;;;4921910;29;20036;-68
2022/02/26 07:14:02;;;;;;;3.08;2.17;;;-6.50;99.90;;;;;;4929386;29;20029;-68
2022/02/26 07:16:27;;;;;;;3.67;1.48;;;-6.50;99.90;;;;;;4927322;29;20383;-68
2022/02/26 07:18:53;;;;;;;1.48;1.38;;;-6.40;99.90;;;;;;4924587;29;20036;-68
2022/02/26 07:21:19;;;;;;;2.08;1.75;;;-6.40;99.90;;;;;;4932126;29;20174;-69
2022/02/26 07:23:44;;;;;;;1.33;1.23;;;-6.40;99.90;;;;;;4930138;29;20067;-68
2022/02/26 07:26:10;;;;;;;3.35;1.60;;;-6.10;99.90;;;;;;4926891;29;20361;-69
2022/02/26 07:28:37;;;;;;;1.75;1.10;;;-4.50;99.90;;;;;;4926392;29;20031;-68
2022/02/26 07:31:02;;;;;;;1.65;1.48;;;-3.70;99.90;;;;;;4926495;29;20040;-67
2022/02/26 07:33:28;;;;;;;1.40;1.30;;;-3.10;99.90;;;;;;4926904;29;20081;-67
2022/02/26 07:35:54;;;;;;;1.27;1.15;;;-2.80;99.90;;;;;;4926127;29;20480;-67
2022/02/26 07:38:20;;;;;;;1.15;1.08;;;-2.60;99.90;;;;;;4926503;29;20043;-68
2022/02/26 07:40:45;;;;;;;1.40;1.10;;;-2.40;99.90;;;;;;4928317;29;20066;-65
2022/02/26 07:43:11;;;;;;;2.03;1.30;;;-2.30;99.90;;;;;;4926635;29;20064;-65
2022/02/26 07:45:37;;;;;;;1.33;1.20;;;-2.60;99.90;;;;;;4925595;29;20024;-65
2022/02/26 07:48:03;;;;;;;5.30;1.27;;;-3.30;99.90;;;;;;4928279;29;20090;-66
2022/02/26 07:50:29;;;;;;;2.15;1.13;;;-3.80;99.90;;;;;;4926472;29;20019;-68
2022/02/26 07:52:55;;;;;;;1.48;1.15;;;-4.10;99.90;;;;;;4927397;29;20082;-68
2022/02/26 07:55:20;;;;;;;1.25;1.15;;;-4.20;99.90;;;;;;4928035;29;20031;-67
2022/02/26 07:57:46;;;;;;;2.28;1.30;;;-4.40;99.90;;;;;;4927964;29;20533;-68
2022/02/26 08:00:12;;;;;;;8.38;3.90;;;-4.50;99.90;;;;;;4926394;29;20021;-66
2022/02/26 08:02:38;;;;;;;2.10;1.38;;;-4.60;99.90;;;;;;4921365;29;20048;-68
2022/02/26 08:05:04;;;;;;;3.13;1.52;;;-4.60;99.90;;;;;;4915873;29;20033;-66
2022/02/26 08:07:30;;;;;;;2.40;1.17;;;-4.60;99.90;;;;;;4917364;29;20243;-65
2022/02/26 08:09:56;;;;;;;2.45;1.50;;;-4.70;99.90;;;;;;4917784;29;20099;-65
2022/02/26 08:12:22;;;;;;;3.63;1.58;;;-4.70;99.90;;;;;;4917739;29;20043;-65
2022/02/26 08:14:48;;;;;;;2.55;1.95;;;-4.70;99.90;;;;;;4927511;29;20035;-65
2022/02/26 08:17:13;;;;;;;3.60;1.42;;;-4.70;99.90;;;;;;4936449;29;20044;-65
2022/02/26 08:19:39;;;;;;;3.67;1.90;;;-4.80;99.90;;;;;;4935663;29;20035;-65
2022/02/26 08:22:06;;;;;;;2.70;1.52;;;-4.80;99.90;;;;;;4934872;29;20134;-65
2022/02/26 08:24:32;;;;;;;2.03;1.20;;;-4.80;99.90;;;;;;4936151;29;20059;-65
2022/02/26 08:26:58;;;;;;;2.65;1.58;;;-4.80;99.90;;;;;;4936632;29;20400;-65
2022/02/26 08:29:24;;;;;;;1.40;1.30;;;-4.80;99.90;;;;;;4936262;29;20507;-65
2022/02/26 08:31:49;;;;;;;1.23;1.20;;;-4.80;99.90;;;;;;4936438;29;20024;-65
2022/02/26 08:34:15;;;;;;;2.25;1.33;;;-4.80;99.90;;;;;;4936123;29;20395;-65
2022/02/26 08:36:43;;;;;;;1.73;1.45;;;-4.80;99.90;;;;;;4936267;29;20035;-65
2022/02/26 08:39:09;;;;;;;2.78;1.20;;;-4.80;99.90;;;;;;4935606;29;20504;-65
2022/02/26 08:41:34;;;;;;;2.25;1.38;;;-4.80;99.90;;;;;;4936138;29;20039;-65
2022/02/26 08:44:00;;;;;;;2.85;1.83;;;-4.80;99.90;;;;;;4936154;29;20023;-65
2022/02/26 08:46:26;;;;;;;2.65;1.70;;;-4.80;99.90;;;;;;4936203;29;20028;-65
2022/02/26 08:48:52;;;;;;;2.85;1.58;;;-4.80;99.90;;;;;;4931714;29;20477;-65
2022/02/26 08:51:18;;;;;;;5.95;1.48;;;-4.70;99.90;;;;;;4916907;29;20497;-69
2022/02/26 08:53:43;;;;;;;2.33;1.40;;;-3.20;99.90;;;;;;4917580;29;20040;-68
2022/02/26 08:56:09;;;;;;;5.10;3.08;;;-2.30;99.90;;;;;;4916950;29;20115;-68
2022/02/26 08:58:35;;;;;;;2.13;1.88;;;-1.50;99.90;;;;;;4917443;29;20028;-68
2022/02/26 09:01:00;;;;;;;1.70;1.50;;;-2.10;99.90;;;;;;4917156;29;20057;-68
2022/02/26 09:03:26;;;;;;;1.75;1.60;;;-2.70;99.90;;;;;;4917217;29;20110;-68
2022/02/26 09:05:53;;;;;;;2.58;1.55;;;-3.20;99.90;;;;;;4917459;29;20494;-68
2022/02/26 09:08:19;;;;;;;1.73;1.23;;;-3.40;99.90;;;;;;4917286;29;20369;-68
2022/02/26 09:10:44;;;;;;;1.63;1.38;;;-3.40;99.90;;;;;;4917070;29;20484;-68
2022/02/26 09:13:10;;;;;;;1.67;1.40;;;-3.50;99.90;;;;;;4917021;29;20039;-68
2022/02/26 09:15:36;;;;;;;3.92;1.80;;;-3.60;99.90;;;;;;4917078;29;20032;-68
2022/02/26 09:18:02;;;;;;;2.25;1.25;;;-3.70;99.90;;;;;;4916761;29;20196;-68
2022/02/26 09:20:28;;;;;;;3.40;1.42;;;-3.70;99.90;;;;;;4916963;29;20032;-68
2022/02/26 09:22:53;;;;;;;2.45;1.15;;;-3.70;99.90;;;;;;4917111;29;20036;-68
2022/02/26 09:25:19;;;;;;;2.63;1.17;;;-3.70;99.90;;;;;;4916605;29;20494;-68
2022/02/26 09:27:45;;;;;;;3.75;1.42;;;-3.70;99.90;;;;;;4916992;29;20064;-68
2022/02/26 09:30:12;;;;;;;1.40;1.30;;;-3.70;99.90;;;;;;4916453;29;20035;-68
2022/02/26 09:32:38;;;;;;;1.70;1.20;;;-3.70;99.90;;;;;;4916968;29;20035;-68
2022/02/26 09:35:05;;;;;;;1.20;1.10;;;-3.70;99.90;;;;;;4916735;29;20028;-68
2022/02/26 09:37:30;;;;;;;1.85;1.35;;;-3.60;99.90;;;;;;4916483;29;20039;-68
2022/02/26 09:39:59;;;;;;;3.13;1.33;;;-3.60;99.90;;;;;;4916551;29;20479;-68
2022/02/26 09:42:29;;;;;;;1.95;1.40;;;-3.60;99.90;;;;;;4916283;29;20036;-68
2022/02/26 09:44:56;;;;;;;4.40;1.67;;;-3.60;99.90;;;;;;4916728;29;20055;-68
2022/02/26 09:47:22;;;;;;;4.53;2.45;;;-3.60;99.90;;;;;;4916317;29;20036;-68
2022/02/26 09:49:48;;;;;;;5.10;2.22;;;-3.50;99.90;;;;;;4916400;29;20480;-68
2022/02/26 09:52:15;;;;;;;4.45;2.60;;;-3.40;99.90;;;;;;4916314;29;20073;-68
2022/02/26 09:54:41;;;;;;;3.42;2.03;;;-3.30;99.90;;;;;;4916346;29;20020;-68
2022/02/26 09:57:07;;;;;;;6.65;2.90;;;-3.20;99.90;;;;;;4916132;29;20032;-68
2022/02/26 09:59:32;;;;;;;1.20;1.10;;;-3.20;99.90;;;;;;4916037;29;20028;-68
2022/02/26 10:02:01;;;;;;;5.72;2.20;;;-2.50;99.90;;;;;;4916115;29;20032;-67
2022/02/26 10:04:28;;;;;;;7.05;3.15;;;0.00;99.90;;;;;;4916262;29;20063;-67
2022/02/26 10:07:17;;;;;;;7.32;2.75;;;0.00;99.90;;;;;;4916383;29;20036;-70
2022/02/26 10:09:47;;;;;;;3.40;1.80;;;-0.50;99.90;;;;;;4916369;29;20032;-69
2022/02/26 10:12:21;;;;;;;1.60;1.50;;;-0.90;99.90;;;;;;4915803;29;20043;-69
2022/02/26 10:14:48;;;;;;;3.65;1.60;;;-0.80;99.90;;;;;;4918825;29;20375;-68
2022/02/26 10:17:27;;;;;;;4.80;1.50;;;0.10;99.90;;;;;;4919113;29;20514;-69
2022/02/26 10:20:19;;;;;;;1.85;1.02;;;-0.10;99.90;;;;;;4934716;29;20031;-69
2022/02/26 10:22:51;;;;;;;1.52;1.17;;;-0.40;99.90;;;;;;4933808;29;20079;-69
2022/02/26 10:25:22;;;;;;;1.45;1.00;;;-0.70;99.90;;;;;;4931479;29;20028;-69
2022/02/26 10:27:52;;;;;;;1.55;1.15;;;-0.90;97.90;;;;;;4924387;29;20039;-69
2022/02/26 10:30:37;;;;;;;1.55;1.00;;;-1.10;98.30;;;;;;4923470;29;20056;-69
2022/02/26 10:33:13;;;;;;;2.30;1.20;;;-1.10;96.80;;;;;;4919481;29;20028;-69
2022/02/26 10:35:55;;;;;;;1.48;1.00;;;-1.20;96.60;;;;;;4931158;29;20028;-68
2022/02/26 10:38:30;;;;;;;2.67;1.08;;;-1.20;96.70;;;;;;4919939;29;20088;-68
2022/02/26 10:41:03;;;;;;;1.65;0.95;;;-1.30;95.80;;;;;;4923696;29;20042;-68
2022/02/26 10:43:46;;;;;;;1.52;1.00;;;-1.30;95.60;;;;;;4919323;29;20123;-66
2022/02/26 10:46:31;;;;;;;1.50;1.17;;;-1.30;96.70;;;;;;4925995;29;20024;-68
2022/02/26 10:48:58;;;;;;;2.00;0.90;;;-1.30;95.40;;;;;;4919552;29;20043;-68
2022/02/26 10:51:30;;;;;;;2.83;1.40;;;-1.30;95.60;;;;;;4915466;29;20435;-69
2022/02/26 10:53:57;;;;;;;1.15;1.00;;;-1.20;95.80;;;;;;4915700;29;20032;-69
2022/02/26 10:56:40;;;;;;;1.50;1.35;;;-1.20;95.20;;;;;;4915752;29;20064;-69
2022/02/26 10:59:10;;;;;;;1.85;1.17;;;-1.10;94.40;;;;;;4917977;29;20035;-68
2022/02/26 11:01:37;;;;;;;2.72;1.30;;;-1.10;94.60;;;;;;4915427;29;20046;-68
2022/02/26 11:04:03;;;;;;;4.03;1.20;;;-1.20;94.80;;;;;;4915813;29;20068;-68
2022/02/26 11:06:31;;;;;;;2.83;1.30;;;-1.20;95.30;;;;;;4915469;29;20514;-68
2022/02/26 11:08:58;;;;;;;2.15;0.95;;;-1.20;96.30;;;;;;4915544;29;20032;-68
2022/02/26 11:11:25;;;;;;;1.55;1.00;;;-1.10;95.80;;;;;;4915660;29;20036;-67
2022/02/26 11:13:57;;;;;;;2.28;1.30;;;-1.00;94.80;;;;;;4915742;29;20050;-68
2022/02/26 11:16:24;;;;;;;1.63;1.38;;;-1.00;93.70;;;;;;4915626;29;20040;-68
2022/02/26 11:18:53;;;;;;;3.67;1.38;;;-0.90;93.40;;;;;;4915489;29;20035;-68
2022/02/26 11:21:21;;;;;;;3.30;1.17;;;-0.90;93.40;;;;;;4915351;29;20020;-68
2022/02/26 11:23:48;;;;;;;8.18;1.10;;;-0.90;93.60;;;;;;4924148;29;20051;-68
2022/02/26 11:26:19;;;;;;;3.70;1.20;;;-0.80;92.80;;;;;;4924907;29;20038;-68
2022/02/26 11:28:50;;;;;;;2.35;1.00;;;-0.80;92.20;;;;;;4915432;29;20112;-68
2022/02/26 11:31:24;;;;;;;3.08;1.10;;;-0.70;92.00;;;;;;4915143;29;20070;-68
2022/02/26 11:33:52;;;;;;;1.77;1.10;;;-0.60;91.80;;;;;;4915218;29;20035;-68
2022/02/26 11:36:18;;;;;;;3.03;1.00;;;-0.60;91.70;;;;;;4915043;29;20361;-68
2022/02/26 11:38:45;;;;;;;1.92;1.20;;;-0.60;91.40;;;;;;4919899;29;20107;-68
2022/02/26 11:41:26;;;;;;;1.48;1.13;;;-0.50;91.40;;;;;;4928047;29;20051;-69
2022/02/26 11:44:00;;;;;;;1.23;1.08;;;-0.50;91.00;;;;;;4928063;29;20032;-68
2022/02/26 11:46:33;;;;;;;2.22;1.10;;;-0.40;91.10;;;;;;4925272;29;20501;-68
2022/02/26 11:49:00;;;;;;;4.03;1.17;;;-0.40;91.50;;;;;;4926608;29;20395;-66
2022/02/26 11:51:36;;;;;;;2.45;1.35;;;-0.40;91.30;;;;;;4925737;29;20720;-67
2022/02/26 11:54:08;;;;;;;7.25;1.45;;;-0.40;91.20;;;;;;4926614;29;20447;-67
2022/02/26 11:56:43;;;;;;;5.78;1.40;;;-0.40;90.70;;;;;;4925246;29;20034;-67
2022/02/26 11:59:09;;;;;;;1.77;1.33;;;-0.40;91.20;;;;;;4926900;29;20024;-67
2022/02/26 12:01:35;;;;;;;1.42;1.02;;;-0.30;91.80;;;;;;4931602;29;20096;-67
2022/02/26 12:04:01;;;;;;;4.70;1.10;;;-0.30;91.90;;;;;;4926942;29;20086;-69
2022/02/26 12:06:32;;;;;;;1.42;0.90;;;-0.30;91.10;;;;;;4933834;29;20028;-68
2022/02/26 12:09:08;;;;;;;2.15;1.00;;;-0.20;90.60;;;;;;4936583;29;20039;-68
2022/02/26 12:11:38;;;;;;;2.17;0.90;;;-0.10;94.90;;;;;;4936452;29;20027;-69
2022/02/26 12:14:25;;;;;;;;;;;0.30;99.90;;;;;;4937081;29;20435;-69
2022/02/26 12:17:08;;;;;;;2.60;1.02;;;0.30;98.00;;;;;;4936239;29;19962;-69
2022/02/26 12:19:47;;;;;;;1.00;0.90;;;0.30;94.00;;;;;;4936651;29;20079;-69
2022/02/26 12:22:13;;;;;;;1.95;1.10;;;0.20;92.50;;;;;;4917448;29;20051;-69
2022/02/26 12:24:56;;;;;;;3.35;1.40;;;0.20;91.90;;;;;;4917120;29;20063;-69
2022/02/26 12:27:34;;;;;;;4.82;1.02;;;0.20;91.50;;;;;;4917228;29;20032;-69
2022/02/26 12:30:29;;;;;;;3.15;1.13;;;0.20;90.70;;;;;;4919464;29;20032;-69
2022/02/26 12:33:03;;;;;;;3.83;1.35;;;0.20;89.70;;;;;;4933008;29;20095;-69
2022/02/26 12:35:35;;;;;;;3.90;2.13;;;0.20;90.30;;;;;;4936083;29;20396;-69
2022/02/26 12:38:01;;;;;;;8.20;2.13;;;0.20;90.10;;;;;;4935752;29;20042;-69
2022/02/26 12:40:33;;;;;;;6.10;1.65;;;0.20;88.10;;;;;;4935832;29;20114;-69
2022/02/26 12:43:11;;;;;;;10.65;1.50;;;0.90;99.90;;;;;;4935834;29;20133;-72
2022/02/26 12:45:46;;;;;;;8.30;1.50;;;1.00;92.90;;;;;;4928565;29;20023;-71
2022/02/26 12:48:13;;;;;;;3.75;1.30;;;0.80;88.60;;;;;;4931254;29;20046;-71
2022/02/26 12:50:40;;;;;;;4.22;1.67;;;0.60;88.30;;;;;;4937874;29;20102;-72
2022/02/26 12:53:06;;;;;;;2.92;1.30;;;0.50;88.70;;;;;;4935157;29;20031;-72
2022/02/26 12:55:33;;;;;;;5.45;1.10;;;0.50;89.30;;;;;;4935285;29;20092;-73
2022/02/26 12:57:59;;;;;;;9.43;1.55;;;0.40;87.70;;;;;;4935924;29;20031;-72
2022/02/26 13:00:27;;;;;;;3.85;1.15;;;0.40;87.80;;;;;;4935586;29;20427;-71
2022/02/26 13:03:04;;;;;;;5.60;1.20;;;0.40;86.90;;;;;;4935485;29;20275;-71
2022/02/26 13:05:35;;;;;;;4.43;1.00;;;0.40;87.80;;;;;;4934095;29;20510;-71
2022/02/26 13:08:15;;;;;;;3.60;1.00;;;0.30;87.50;;;;;;4935614;29;20019;-71
2022/02/26 13:10:54;;;;;;;3.60;1.42;;;0.30;86.70;;;;;;4926965;29;20103;-71
2022/02/26 13:13:20;;;;;;;3.83;1.08;;;0.40;87.00;;;;;;4924052;29;20106;-71
2022/02/26 13:15:48;;;;;;;8.82;1.60;;;0.30;84.00;;;;;;4931542;29;20607;-72
2022/02/26 13:18:18;;;;;;;2.15;1.20;;;0.30;84.50;;;;;;4935315;29;20079;-72
2022/02/26 13:20:49;;;;;;;3.17;1.15;;;0.30;83.70;;;;;;4935137;29;20502;-73
2022/02/26 13:23:18;;;;;;;3.67;1.30;;;0.30;84.10;;;;;;4935220;29;20062;-72
2022/02/26 13:25:44;;;;;;;3.17;1.23;;;0.30;83.00;;;;;;4935114;29;20028;-72
2022/02/26 13:28:13;;;;;;;3.53;1.60;;;0.30;82.00;;;;;;4935028;29;20027;-72
2022/02/26 13:30:39;;;;;;;3.80;1.60;;;0.30;83.30;;;;;;4933783;29;20472;-72
2022/02/26 13:33:05;;;;;;;3.75;1.27;;;0.30;82.70;;;;;;4935064;29;20035;-71
2022/02/26 13:35:33;;;;;;;3.72;1.70;;;0.20;82.80;;;;;;4934774;29;20031;-72
2022/02/26 13:38:00;;;;;;;4.07;1.20;;;0.20;83.70;;;;;;4934781;29;20515;-71
2022/02/26 13:40:27;;;;;;;10.25;4.07;;;0.20;82.70;;;;;;4934703;29;20070;-71
2022/02/26 13:42:56;;;;;;;1.67;1.05;;;0.20;83.30;;;;;;4934800;29;20127;-71
2022/02/26 13:45:25;;;;;;;3.65;1.70;;;0.20;83.00;;;;;;4930046;29;20028;-71
2022/02/26 13:47:51;;;;;;;11.30;1.30;;;0.20;83.80;;;;;;4927336;29;20032;-70
2022/02/26 13:50:19;;;;;;;4.00;1.23;;;0.20;83.20;;;;;;4928814;29;20027;-70
2022/02/26 13:52:48;;;;;;;9.38;3.28;;;0.20;83.90;;;;;;4924400;29;20028;-70
2022/02/26 13:55:17;;;;;;;7.57;1.95;;;0.30;85.10;;;;;;4934480;29;20043;-70